Time;durP1;ratioP1;P1;durP2;ratioP2;P2;SDS_P1;SDS_P2;PMS_P1;PMS_P2;Temp;Humidity;BMP_temperature;BMP_pressure;BME280_temperature;BME280_humidity;BME280_pressure;Samples;Min_cycle;Max_cycle;Signal;HPM_P1;HPM_P2
2023/03/31 00:01:41;;;;;;;19.95;3.55;;;11.00;99.90;;;;;;5010947;28;20485;-60
2023/03/31 00:04:11;;;;;;;14.07;2.67;;;11.10;99.90;;;;;;5010748;28;20045;-59
2023/03/31 00:06:43;;;;;;;19.20;2.70;;;11.00;99.90;;;;;;5010765;28;20480;-59
2023/03/31 00:09:11;;;;;;;24.23;4.63;;;11.00;99.90;;;;;;5011152;28;20136;-61
2023/03/31 00:11:39;;;;;;;15.30;3.67;;;11.00;99.90;;;;;;5010528;28;20050;-61
2023/03/31 00:14:06;;;;;;;19.10;3.63;;;11.00;99.90;;;;;;5010103;28;20050;-60
2023/03/31 00:16:36;;;;;;;12.77;2.33;;;11.00;99.90;;;;;;5009878;28;20056;-59
2023/03/31 00:19:03;;;;;;;18.80;2.67;;;11.00;99.90;;;;;;5011124;28;20052;-59
2023/03/31 00:21:33;;;;;;;17.20;3.30;;;11.00;99.90;;;;;;5010463;28;20545;-60
2023/03/31 00:24:01;;;;;;;15.18;2.60;;;11.00;99.90;;;;;;5001134;28;20046;-60
2023/03/31 00:26:28;;;;;;;15.30;2.90;;;10.90;99.90;;;;;;5010187;28;20045;-60
2023/03/31 00:28:55;;;;;;;15.07;2.78;;;10.90;99.90;;;;;;5010754;28;20381;-60
2023/03/31 00:31:22;;;;;;;14.73;3.08;;;10.80;99.90;;;;;;5010254;28;20140;-60
2023/03/31 00:33:49;;;;;;;21.63;2.70;;;10.80;99.90;;;;;;5010503;28;20141;-59
2023/03/31 00:36:20;;;;;;;15.50;4.43;;;10.70;99.90;;;;;;5009718;28;20149;-59
2023/03/31 00:38:47;;;;;;;20.30;3.22;;;10.60;99.90;;;;;;5010915;28;20073;-60
2023/03/31 00:41:14;;;;;;;18.35;2.95;;;10.60;99.90;;;;;;5010109;28;20230;-59
2023/03/31 00:44:11;;;;;;;13.55;2.50;;;10.50;99.90;;;;;;5010171;28;20084;-60
2023/03/31 00:46:54;;;;;;;21.77;3.80;;;10.50;99.90;;;;;;5006324;28;20169;-60
2023/03/31 00:49:41;;;;;;;19.60;3.38;;;10.50;99.90;;;;;;5010439;28;20474;-59
2023/03/31 00:52:12;;;;;;;17.25;2.55;;;10.50;99.90;;;;;;5003687;28;20158;-60
2023/03/31 00:54:39;;;;;;;13.38;2.35;;;10.50;99.90;;;;;;5010490;28;20450;-59
2023/03/31 00:57:06;;;;;;;16.73;3.30;;;10.50;99.90;;;;;;5003499;28;20490;-59
2023/03/31 00:59:36;;;;;;;11.60;1.88;;;10.50;99.90;;;;;;5000660;28;20057;-60
2023/03/31 01:02:03;;;;;;;10.40;2.05;;;10.60;99.90;;;;;;4993737;28;20050;-60
2023/03/31 01:04:32;;;;;;;11.18;2.13;;;10.50;99.90;;;;;;4996271;28;20262;-59
2023/03/31 01:07:08;;;;;;;9.57;1.85;;;10.60;99.90;;;;;;5005864;28;20081;-60
2023/03/31 01:09:34;;;;;;;12.32;2.03;;;10.60;99.90;;;;;;4991969;28;20077;-60
2023/03/31 01:12:06;;;;;;;11.90;1.83;;;10.60;99.90;;;;;;5017674;28;20070;-60
2023/03/31 01:14:33;;;;;;;7.60;1.48;;;10.70;99.90;;;;;;5009687;28;20128;-60
2023/03/31 01:17:01;;;;;;;14.68;2.67;;;10.60;99.90;;;;;;5009482;28;20045;-60
2023/03/31 01:20:13;;;;;;;9.80;2.50;;;10.60;99.90;;;;;;4657265;28;9999882;-61
2023/03/31 01:23:17;;;;;;;10.35;2.22;;;10.60;99.90;;;;;;4996052;28;20052;-61
2023/03/31 01:26:08;;;;;;;11.95;2.40;;;10.60;99.90;;;;;;5009616;28;20132;-61
2023/03/31 01:28:40;;;;;;;9.23;2.83;;;10.60;99.90;;;;;;5003144;28;20365;-60
2023/03/31 01:31:19;;;;;;;13.02;3.80;;;10.60;99.90;;;;;;4999526;28;20669;-60
2023/03/31 01:34:16;;;;;;;7.82;1.75;;;10.70;99.90;;;;;;5006095;28;20069;-61
2023/03/31 01:37:22;;;;;;;8.57;1.73;;;10.70;99.90;;;;;;5002238;28;20145;-60
2023/03/31 01:40:01;;;;;;;7.00;2.08;;;10.70;99.90;;;;;;5009089;28;20045;-60
2023/03/31 01:42:32;;;;;;;4.40;1.50;;;10.70;99.90;;;;;;5009488;28;20124;-60
2023/03/31 01:45:38;;;;;;;8.25;1.85;;;10.70;99.90;;;;;;5000231;28;20459;-61
2023/03/31 01:48:11;;;;;;;8.02;2.05;;;10.70;99.90;;;;;;4985186;28;20052;-61
2023/03/31 01:50:45;;;;;;;11.07;3.15;;;10.70;99.90;;;;;;5001803;28;20452;-60
2023/03/31 01:53:32;;;;;;;10.75;2.10;;;10.70;99.90;;;;;;4996032;28;20056;-60
2023/03/31 01:56:17;;;;;;;19.00;2.33;;;10.70;99.90;;;;;;5001451;28;20517;-60
2023/03/31 01:58:55;;;;;;;17.02;2.97;;;10.80;99.90;;;;;;5008721;28;20129;-60
2023/03/31 02:01:29;;;;;;;17.63;2.63;;;10.70;99.90;;;;;;4994866;28;20058;-60
2023/03/31 02:04:25;;;;;;;17.77;4.15;;;10.70;99.90;;;;;;5008808;28;20046;-60
2023/03/31 02:06:56;;;;;;;21.08;3.28;;;10.70;99.90;;;;;;4989616;28;20054;-61
2023/03/31 02:09:26;;;;;;;10.40;2.40;;;10.70;99.90;;;;;;5000079;28;20041;-60
2023/03/31 02:11:53;;;;;;;20.42;3.20;;;10.80;99.90;;;;;;4995794;28;20538;-61
2023/03/31 02:14:21;;;;;;;17.70;2.65;;;10.70;99.90;;;;;;5004647;28;20064;-61
2023/03/31 02:16:49;;;;;;;18.65;2.83;;;10.70;99.90;;;;;;4995408;28;20049;-60
2023/03/31 02:19:17;;;;;;;21.90;5.07;;;10.70;99.90;;;;;;5004375;28;20046;-60
2023/03/31 02:21:48;;;;;;;16.15;2.88;;;10.70;99.90;;;;;;5000850;28;20063;-60
2023/03/31 02:24:16;;;;;;;21.23;3.28;;;10.70;99.90;;;;;;5005841;28;20050;-60
2023/03/31 02:26:56;;;;;;;24.73;4.53;;;10.70;99.90;;;;;;5001044;28;20052;-61
2023/03/31 02:29:22;;;;;;;23.55;3.50;;;10.70;99.90;;;;;;4992987;28;20045;-61
2023/03/31 02:31:55;;;;;;;16.58;3.97;;;10.70;99.90;;;;;;5008633;28;20048;-61
2023/03/31 02:34:22;;;;;;;22.20;3.97;;;10.70;99.90;;;;;;4998955;28;20133;-61
2023/03/31 02:36:49;;;;;;;13.90;3.38;;;10.60;99.90;;;;;;4994173;28;20054;-61
2023/03/31 02:39:18;;;;;;;9.57;2.65;;;10.60;99.90;;;;;;5004991;28;20057;-60
2023/03/31 02:41:45;;;;;;;10.45;2.33;;;10.70;99.90;;;;;;4999238;28;20054;-60
2023/03/31 02:44:12;;;;;;;14.80;3.22;;;10.60;99.90;;;;;;4993516;28;20129;-61
2023/03/31 02:46:39;;;;;;;9.05;2.13;;;10.60;99.90;;;;;;4998681;28;20153;-60
2023/03/31 02:49:06;;;;;;;10.85;2.47;;;10.60;99.90;;;;;;5008435;28;20060;-61
2023/03/31 02:52:02;;;;;;;15.55;2.53;;;10.60;99.90;;;;;;4998261;28;20046;-61
2023/03/31 02:54:37;;;;;;;17.08;2.80;;;10.60;99.90;;;;;;4981023;28;20046;-61
2023/03/31 02:57:31;;;;;;;19.40;4.55;;;10.60;99.90;;;;;;5008180;28;20080;-61
2023/03/31 03:00:29;;;;;;;20.93;3.87;;;10.60;99.90;;;;;;5008843;28;20133;-61
2023/03/31 03:03:11;;;;;;;31.50;6.82;;;10.60;99.90;;;;;;5008083;28;20082;-61
2023/03/31 03:05:48;;;;;;;31.15;5.53;;;10.60;99.90;;;;;;4995488;28;20042;-61
2023/03/31 03:08:24;;;;;;;28.60;7.43;;;10.50;99.90;;;;;;5008095;28;20069;-61
2023/03/31 03:11:03;;;;;;;37.42;7.43;;;10.50;99.90;;;;;;4994512;28;20136;-61
2023/03/31 03:14:17;;;;;;;34.42;6.20;;;10.50;99.90;;;;;;5008439;28;20253;-61
2023/03/31 03:16:48;;;;;;;39.65;5.75;;;10.50;99.90;;;;;;4972587;28;20124;-61
2023/03/31 03:19:20;;;;;;;39.75;5.95;;;10.50;99.90;;;;;;4998568;28;20077;-61
2023/03/31 03:21:47;;;;;;;39.03;7.20;;;10.50;99.90;;;;;;4992389;28;20479;-60
2023/03/31 03:24:15;;;;;;;41.55;7.22;;;10.50;99.90;;;;;;5007692;28;20278;-61
2023/03/31 03:26:43;;;;;;;36.22;5.65;;;10.50;99.90;;;;;;5004032;28;20050;-61
2023/03/31 03:29:13;;;;;;;38.22;6.93;;;10.50;99.90;;;;;;4994133;28;20050;-61
2023/03/31 03:31:41;;;;;;;26.77;5.68;;;10.50;99.90;;;;;;5007810;28;20050;-62
2023/03/31 03:34:10;;;;;;;37.60;5.65;;;10.40;99.90;;;;;;5007611;28;20084;-61
2023/03/31 03:36:37;;;;;;;34.83;4.63;;;10.40;99.90;;;;;;4994657;28;20050;-61
2023/03/31 03:39:06;;;;;;;31.30;5.22;;;10.40;99.90;;;;;;5008101;28;20050;-61
2023/03/31 03:41:32;;;;;;;24.65;4.78;;;10.40;99.90;;;;;;5007854;28;20072;-61
2023/03/31 03:43:59;;;;;;;30.08;7.28;;;10.40;99.90;;;;;;5008042;28;20050;-61
2023/03/31 03:46:26;;;;;;;31.30;5.60;;;10.30;99.90;;;;;;5007890;28;20480;-61
2023/03/31 03:48:53;;;;;;;30.13;4.88;;;10.30;99.90;;;;;;4999945;28;20045;-62
2023/03/31 03:51:21;;;;;;;25.60;5.82;;;10.30;99.90;;;;;;5012082;28;20048;-61
2023/03/31 03:53:47;;;;;;;22.15;4.63;;;10.20;99.90;;;;;;5011046;28;20049;-61
2023/03/31 03:56:14;;;;;;;22.60;4.75;;;10.20;99.90;;;;;;5011550;28;20046;-61
2023/03/31 03:58:41;;;;;;;22.02;4.45;;;10.20;99.90;;;;;;5010705;28;20054;-61
2023/03/31 04:01:08;;;;;;;32.22;6.80;;;10.20;99.90;;;;;;5011449;28;20046;-61
2023/03/31 04:03:34;;;;;;;28.27;4.65;;;10.20;99.90;;;;;;5008633;28;20088;-60
2023/03/31 04:06:01;;;;;;;34.45;5.78;;;10.20;99.90;;;;;;5010970;28;20120;-61
2023/03/31 04:08:28;;;;;;;27.48;4.68;;;10.20;99.90;;;;;;5010675;28;20129;-61
2023/03/31 04:10:55;;;;;;;27.05;4.45;;;10.20;99.90;;;;;;5011126;28;20045;-61
2023/03/31 04:13:21;;;;;;;36.17;5.95;;;10.20;99.90;;;;;;5010780;28;20406;-61
2023/03/31 04:15:48;;;;;;;31.05;5.13;;;10.20;99.90;;;;;;5010758;28;20580;-60
2023/03/31 04:18:21;;;;;;;37.35;5.10;;;10.20;99.90;;;;;;5010601;28;20057;-60
2023/03/31 04:20:53;;;;;;;23.48;4.80;;;10.10;99.90;;;;;;5010890;28;20103;-60
2023/03/31 04:23:22;;;;;;;42.50;6.63;;;10.20;99.90;;;;;;5010422;28;20121;-60
2023/03/31 04:25:52;;;;;;;27.33;4.72;;;10.10;99.90;;;;;;5010583;28;20069;-60
2023/03/31 04:28:18;;;;;;;28.10;3.67;;;10.10;99.90;;;;;;4997043;28;20042;-61
2023/03/31 04:30:45;;;;;;;33.35;6.30;;;10.10;99.90;;;;;;5010191;28;20042;-61
2023/03/31 04:33:14;;;;;;;27.88;5.60;;;10.10;99.90;;;;;;5010367;28;20060;-60
2023/03/31 04:35:51;;;;;;;22.25;4.30;;;10.10;99.90;;;;;;5010188;28;20559;-60
2023/03/31 04:38:19;;;;;;;18.67;3.88;;;10.10;99.90;;;;;;5010590;28;20050;-60
2023/03/31 04:40:47;;;;;;;27.52;5.20;;;10.20;99.90;;;;;;5010141;28;20111;-61
2023/03/31 04:43:15;;;;;;;18.05;3.35;;;10.10;99.90;;;;;;5010347;28;20082;-61
2023/03/31 04:45:41;;;;;;;25.58;4.30;;;10.10;99.90;;;;;;5001269;28;20133;-60
2023/03/31 04:48:08;;;;;;;23.38;4.53;;;10.20;99.90;;;;;;4996342;28;20080;-61
2023/03/31 04:50:35;;;;;;;23.77;3.50;;;10.10;99.90;;;;;;5009350;28;20054;-61
2023/03/31 04:53:03;;;;;;;25.40;6.15;;;10.10;99.90;;;;;;4998397;28;20134;-61
2023/03/31 04:55:29;;;;;;;15.27;3.70;;;10.10;99.90;;;;;;5007566;28;20042;-62
2023/03/31 04:57:57;;;;;;;18.98;3.67;;;10.10;99.90;;;;;;5010249;28;20056;-62
2023/03/31 05:00:23;;;;;;;11.80;2.60;;;10.20;99.90;;;;;;5002775;28;20524;-62
2023/03/31 05:02:50;;;;;;;12.38;3.05;;;10.10;99.90;;;;;;5010388;28;20304;-61
2023/03/31 05:05:17;;;;;;;15.68;3.15;;;10.10;99.90;;;;;;5009435;28;20046;-61
2023/03/31 05:07:45;;;;;;;19.00;3.03;;;10.10;99.90;;;;;;5010089;28;20133;-60
2023/03/31 05:10:11;;;;;;;15.07;3.58;;;10.10;99.90;;;;;;5005645;28;20042;-60
2023/03/31 05:12:38;;;;;;;17.00;5.15;;;10.10;99.90;;;;;;5009686;28;20046;-61
2023/03/31 05:15:06;;;;;;;12.05;2.10;;;10.10;99.90;;;;;;5009566;28;20481;-61
2023/03/31 05:17:33;;;;;;;7.45;2.10;;;10.10;99.90;;;;;;5009837;28;20382;-61
2023/03/31 05:20:00;;;;;;;17.50;3.10;;;10.10;99.90;;;;;;4996081;28;20133;-60
2023/03/31 05:22:27;;;;;;;13.02;2.33;;;10.10;99.90;;;;;;5005959;28;20056;-61
2023/03/31 05:24:54;;;;;;;9.27;2.42;;;10.10;99.90;;;;;;5009598;28;20042;-62
2023/03/31 05:27:20;;;;;;;10.93;1.55;;;10.10;99.90;;;;;;5009455;28;20049;-61
2023/03/31 05:29:47;;;;;;;14.73;2.17;;;10.10;99.90;;;;;;5009623;28;20046;-60
2023/03/31 05:32:14;;;;;;;10.38;1.40;;;10.10;99.90;;;;;;5009123;28;20042;-61
2023/03/31 05:34:42;;;;;;;9.38;2.20;;;10.10;99.90;;;;;;5009494;28;20505;-61
2023/03/31 05:37:09;;;;;;;14.02;3.85;;;10.10;99.90;;;;;;5003295;28;20077;-61
2023/03/31 05:39:35;;;;;;;10.00;2.63;;;10.10;99.90;;;;;;5004478;28;20099;-61
2023/03/31 05:42:04;;;;;;;18.20;3.55;;;10.10;99.90;;;;;;5005762;28;20048;-61
2023/03/31 05:44:31;;;;;;;17.75;2.95;;;10.10;99.90;;;;;;5000683;28;20084;-61
2023/03/31 05:46:58;;;;;;;15.85;2.97;;;10.10;99.90;;;;;;5002445;28;20072;-61
2023/03/31 05:49:24;;;;;;;21.02;3.42;;;10.10;99.90;;;;;;5009317;28;20298;-60
2023/03/31 05:51:52;;;;;;;27.60;3.65;;;10.10;99.90;;;;;;5008734;28;20093;-60
2023/03/31 05:54:18;;;;;;;15.55;2.90;;;10.10;99.90;;;;;;5009302;28;20052;-60
2023/03/31 05:56:45;;;;;;;17.75;3.92;;;10.10;99.90;;;;;;5008668;28;20050;-61
2023/03/31 05:59:12;;;;;;;12.57;3.10;;;10.10;99.90;;;;;;5008505;28;20133;-60
2023/03/31 06:01:40;;;;;;;18.50;3.42;;;10.10;99.90;;;;;;5003176;28;20054;-60
2023/03/31 06:04:07;;;;;;;17.48;3.00;;;10.10;99.90;;;;;;5008642;28;20046;-60
2023/03/31 06:06:36;;;;;;;19.70;3.30;;;10.10;99.90;;;;;;4995169;28;20377;-61
2023/03/31 06:09:04;;;;;;;12.57;3.13;;;10.10;99.90;;;;;;5008451;28;20607;-62
2023/03/31 06:11:31;;;;;;;19.33;3.70;;;10.10;99.90;;;;;;4993313;28;20339;-62
2023/03/31 06:13:57;;;;;;;11.50;2.67;;;10.10;99.90;;;;;;5007380;28;20069;-60
2023/03/31 06:16:25;;;;;;;11.82;2.83;;;10.10;99.90;;;;;;5009124;28;20133;-61
2023/03/31 06:18:52;;;;;;;17.52;2.45;;;10.00;99.90;;;;;;5007989;28;20100;-62
2023/03/31 06:21:20;;;;;;;13.30;3.10;;;10.10;99.90;;;;;;5008267;28;20416;-62
2023/03/31 06:23:47;;;;;;;25.13;2.75;;;10.10;99.90;;;;;;5008125;28;20089;-64
2023/03/31 06:26:17;;;;;;;18.52;2.55;;;10.10;99.90;;;;;;4995724;28;20204;-60
2023/03/31 06:28:45;;;;;;;18.05;3.85;;;10.00;99.90;;;;;;5005952;28;20519;-60
2023/03/31 06:31:16;;;;;;;24.73;3.70;;;10.10;99.90;;;;;;5008411;28;20102;-60
2023/03/31 06:33:43;;;;;;;17.77;3.75;;;10.00;99.90;;;;;;5007382;28;20129;-60
2023/03/31 06:36:14;;;;;;;15.45;2.38;;;10.00;99.90;;;;;;5007560;28;20460;-62
2023/03/31 06:38:41;;;;;;;15.55;2.70;;;10.00;99.90;;;;;;5001532;28;20054;-61
2023/03/31 06:41:08;;;;;;;21.38;2.97;;;10.10;99.90;;;;;;4995537;28;20052;-64
2023/03/31 06:43:35;;;;;;;19.88;3.97;;;10.10;99.90;;;;;;5006876;28;20141;-61
2023/03/31 06:46:02;;;;;;;18.60;2.75;;;10.10;99.90;;;;;;5007204;28;20134;-62
2023/03/31 06:48:29;;;;;;;16.83;3.95;;;10.10;99.90;;;;;;5006132;28;20056;-60
2023/03/31 06:51:00;;;;;;;17.60;2.78;;;10.10;99.90;;;;;;5006059;28;20056;-61
2023/03/31 06:53:27;;;;;;;26.35;6.45;;;10.20;99.90;;;;;;5001593;28;20130;-61
2023/03/31 06:55:54;;;;;;;26.90;3.83;;;10.10;99.90;;;;;;4998676;28;20046;-61
2023/03/31 06:58:21;;;;;;;18.15;4.22;;;10.20;99.90;;;;;;5005809;28;20666;-60
2023/03/31 07:00:48;;;;;;;24.60;4.10;;;10.20;99.90;;;;;;5006016;28;20457;-62
2023/03/31 07:03:21;;;;;;;18.70;3.58;;;10.20;99.90;;;;;;5007539;28;20045;-61
2023/03/31 07:05:49;;;;;;;32.15;5.25;;;10.20;99.90;;;;;;5007245;28;20046;-61
2023/03/31 07:08:16;;;;;;;14.50;3.28;;;10.20;99.90;;;;;;5007657;28;20058;-61
2023/03/31 07:10:46;;;;;;;29.65;3.80;;;10.20;99.90;;;;;;4998148;28;20588;-61
2023/03/31 07:13:16;;;;;;;22.50;3.45;;;10.20;99.90;;;;;;5004503;28;20052;-61
2023/03/31 07:15:43;;;;;;;23.95;4.43;;;10.30;99.90;;;;;;5004552;28;20084;-61
2023/03/31 07:18:11;;;;;;;27.90;4.13;;;10.30;99.90;;;;;;5007919;28;20053;-61
2023/03/31 07:20:38;;;;;;;22.90;4.78;;;10.30;99.90;;;;;;5007291;28;20128;-60
2023/03/31 07:23:05;;;;;;;24.05;4.18;;;10.30;99.90;;;;;;5009092;28;20225;-60
2023/03/31 07:25:32;;;;;;;32.25;4.82;;;10.30;99.90;;;;;;5008012;28;20065;-62
2023/03/31 07:27:59;;;;;;;23.10;4.80;;;10.30;99.90;;;;;;4998673;28;20508;-62
2023/03/31 07:30:26;;;;;;;28.17;6.32;;;10.30;99.90;;;;;;5010408;28;20646;-62
2023/03/31 07:32:53;;;;;;;26.65;4.32;;;10.40;99.90;;;;;;5000296;28;20598;-61
2023/03/31 07:35:21;;;;;;;32.58;5.75;;;10.40;99.90;;;;;;5001909;28;20062;-62
2023/03/31 07:37:49;;;;;;;21.42;4.25;;;10.40;99.90;;;;;;5010997;28;20054;-62
2023/03/31 07:40:23;;;;;;;26.05;4.47;;;10.40;99.90;;;;;;5009502;28;20038;-62
2023/03/31 07:42:51;;;;;;;32.78;7.07;;;10.50;99.90;;;;;;5009815;28;20052;-61
2023/03/31 07:45:19;;;;;;;22.30;4.32;;;10.50;99.90;;;;;;5007112;28;20162;-61
2023/03/31 07:47:47;;;;;;;31.52;6.00;;;10.50;99.90;;;;;;5011537;28;20049;-61
2023/03/31 07:50:14;;;;;;;30.65;5.38;;;10.50;99.90;;;;;;5010993;28;20443;-61
2023/03/31 07:52:41;;;;;;;25.38;4.57;;;10.50;99.90;;;;;;5011460;28;20584;-65
2023/03/31 07:55:12;;;;;;;24.48;5.35;;;10.50;99.90;;;;;;4999851;28;20049;-62
2023/03/31 07:57:39;;;;;;;37.28;5.10;;;10.50;99.90;;;;;;5011440;28;20462;-63
2023/03/31 08:00:08;;;;;;;28.35;4.65;;;10.50;99.90;;;;;;5010734;28;20046;-62
2023/03/31 08:02:35;;;;;;;29.08;4.32;;;10.50;99.90;;;;;;5009241;28;20050;-62
2023/03/31 08:05:02;;;;;;;28.25;5.93;;;10.50;99.90;;;;;;4994563;28;20473;-61
2023/03/31 08:07:29;;;;;;;18.63;5.47;;;10.60;99.90;;;;;;5009346;28;20125;-61
2023/03/31 08:09:57;;;;;;;26.67;5.07;;;10.60;99.90;;;;;;4978965;28;20042;-61
2023/03/31 08:12:24;;;;;;;24.73;5.57;;;10.70;99.90;;;;;;5009223;28;20176;-62
2023/03/31 08:14:51;;;;;;;26.80;4.60;;;10.70;99.90;;;;;;5010061;28;20219;-61
2023/03/31 08:17:17;;;;;;;29.52;4.75;;;10.70;99.90;;;;;;5009424;28;20128;-61
2023/03/31 08:19:44;;;;;;;16.13;3.78;;;10.70;99.90;;;;;;5011280;28;20081;-62
2023/03/31 08:22:11;;;;;;;25.95;5.60;;;10.70;99.90;;;;;;5011191;28;20121;-63
2023/03/31 08:24:38;;;;;;;28.55;6.25;;;10.80;99.90;;;;;;5011443;28;20046;-62
2023/03/31 08:27:05;;;;;;;23.83;5.95;;;10.80;99.90;;;;;;5011367;28;20050;-63
2023/03/31 08:29:38;;;;;;;30.38;6.22;;;10.80;99.90;;;;;;5008018;28;20552;-61
2023/03/31 08:32:05;;;;;;;31.67;6.47;;;10.80;99.90;;;;;;5010447;28;20124;-61
2023/03/31 08:34:33;;;;;;;21.20;4.13;;;10.80;99.90;;;;;;5005391;28;20046;-61
2023/03/31 08:37:00;;;;;;;33.63;5.03;;;10.80;99.90;;;;;;5009282;28;20132;-62
2023/03/31 08:39:27;;;;;;;33.65;5.70;;;10.80;99.90;;;;;;5008804;28;20447;-62
2023/03/31 08:41:59;;;;;;;23.48;4.43;;;10.70;99.90;;;;;;5010773;28;20557;-61
2023/03/31 08:44:49;;;;;;;25.98;4.30;;;10.80;99.90;;;;;;5010760;28;20053;-62
2023/03/31 08:47:18;;;;;;;22.05;4.25;;;10.80;99.90;;;;;;4997733;28;20408;-61
2023/03/31 08:49:48;;;;;;;19.35;4.28;;;10.80;99.90;;;;;;5003454;28;20125;-61
2023/03/31 08:52:17;;;;;;;25.00;5.70;;;10.80;99.90;;;;;;5007638;28;20505;-62
2023/03/31 08:54:49;;;;;;;24.73;4.15;;;10.80;99.90;;;;;;5003115;28;20089;-61
2023/03/31 08:58:01;;;;;;;27.50;5.20;;;10.90;99.90;;;;;;4992584;28;20476;-59
2023/03/31 09:00:33;;;;;;;20.38;4.03;;;10.90;99.90;;;;;;4937600;29;20498;-61
2023/03/31 09:03:04;;;;;;;21.17;3.63;;;10.90;99.90;;;;;;4975140;28;20129;-60
2023/03/31 09:05:38;;;;;;;28.87;4.67;;;10.90;99.90;;;;;;4996873;28;20042;-61
2023/03/31 09:08:37;;;;;;;25.98;4.10;;;10.90;99.90;;;;;;5006372;28;20124;-61
2023/03/31 09:11:10;;;;;;;25.08;4.40;;;10.90;99.90;;;;;;5007577;28;20042;-62
2023/03/31 09:13:56;;;;;;;24.52;4.07;;;10.90;99.90;;;;;;5006184;28;20124;-61
2023/03/31 09:16:24;;;;;;;21.35;3.47;;;10.90;99.90;;;;;;5007579;28;20049;-61
2023/03/31 09:18:52;;;;;;;18.45;3.88;;;10.90;99.90;;;;;;5003722;28;20112;-61
2023/03/31 09:21:30;;;;;;;31.48;4.40;;;11.00;99.90;;;;;;5000227;28;20046;-61
2023/03/31 09:24:00;;;;;;;25.65;4.30;;;10.90;99.90;;;;;;5002957;28;20071;-61
2023/03/31 09:26:45;;;;;;;28.35;5.30;;;10.80;99.90;;;;;;5000282;28;20097;-61
2023/03/31 09:29:19;;;;;;;27.05;5.32;;;10.80;99.90;;;;;;4995327;28;20129;-63
2023/03/31 09:31:46;;;;;;;;;;;10.70;99.90;;;;;;5007092;28;20128;-61
2023/03/31 09:34:23;;;;;;;22.40;3.65;;;10.70;99.90;;;;;;5009230;28;20403;-61
2023/03/31 09:36:51;;;;;;;20.33;4.88;;;10.70;99.90;;;;;;4997848;28;20072;-62
2023/03/31 09:39:18;;;;;;;30.30;4.35;;;10.60;99.90;;;;;;5009844;28;20148;-61
2023/03/31 09:41:45;;;;;;;26.20;3.22;;;10.60;99.90;;;;;;5010113;28;20281;-61
2023/03/31 09:44:25;;;;;;;23.50;3.67;;;10.60;99.90;;;;;;5010163;28;20049;-61
2023/03/31 09:46:52;;;;;;;14.90;3.80;;;10.70;99.90;;;;;;5009408;28;20492;-61
2023/03/31 09:49:21;;;;;;;29.80;4.68;;;10.70;99.90;;;;;;5009292;28;20050;-61
2023/03/31 09:51:55;;;;;;;27.35;4.75;;;10.70;99.90;;;;;;5001961;28;20042;-60
2023/03/31 09:54:23;;;;;;;21.40;3.35;;;10.70;99.90;;;;;;5006696;28;20050;-63
2023/03/31 09:56:54;;;;;;;36.33;7.85;;;10.80;99.90;;;;;;5009601;28;20137;-61
2023/03/31 09:59:33;;;;;;;39.17;6.07;;;10.80;99.90;;;;;;4996225;28;20046;-61
2023/03/31 10:02:01;;;;;;;29.05;3.85;;;10.80;99.90;;;;;;5009308;28;20469;-61
2023/03/31 10:04:32;;;;;;;18.70;3.85;;;10.90;99.90;;;;;;4991658;28;20046;-61
2023/03/31 10:07:00;;;;;;;24.00;4.22;;;10.90;99.90;;;;;;4994500;28;20047;-61
2023/03/31 10:09:31;;;;;;;28.00;5.63;;;10.90;99.90;;;;;;5007561;28;20141;-60
2023/03/31 10:12:03;;;;;;;26.40;5.75;;;11.00;99.90;;;;;;4991285;28;20056;-61
2023/03/31 10:14:40;;;;;;;42.72;7.40;;;11.00;99.90;;;;;;4994282;28;20045;-60
2023/03/31 10:17:15;;;;;;;21.13;3.85;;;10.90;99.90;;;;;;5007914;28;20046;-60
2023/03/31 10:20:07;;;;;;;23.98;4.90;;;10.90;99.90;;;;;;4994679;28;20064;-61
2023/03/31 10:22:34;;;;;;;21.70;4.32;;;10.90;99.90;;;;;;5009132;28;20042;-60
2023/03/31 10:25:21;;;;;;;23.75;4.05;;;10.90;99.90;;;;;;4993202;28;20125;-61
2023/03/31 10:27:51;;;;;;;27.42;4.18;;;10.90;99.90;;;;;;5005765;28;20041;-61
2023/03/31 10:30:21;;;;;;;26.83;4.20;;;11.00;99.90;;;;;;5005862;28;20508;-60
2023/03/31 10:32:48;;;;;;;18.08;3.70;;;11.00;99.90;;;;;;4997574;28;20418;-61
2023/03/31 10:35:33;;;;;;;26.83;4.30;;;10.90;99.90;;;;;;5004269;28;20092;-61
2023/03/31 10:38:07;;;;;;;23.70;3.42;;;10.90;99.90;;;;;;5008782;28;20058;-60
2023/03/31 10:40:35;;;;;;;24.77;3.95;;;10.90;99.90;;;;;;4975911;28;20104;-61
2023/03/31 10:43:22;;;;;;;19.33;3.80;;;11.00;99.90;;;;;;5008352;28;20050;-61
2023/03/31 10:45:50;;;;;;;11.57;2.67;;;11.00;99.90;;;;;;5008458;28;20153;-61
2023/03/31 10:48:18;;;;;;;17.67;3.90;;;11.00;99.90;;;;;;4975157;28;20108;-60
2023/03/31 10:50:45;;;;;;;17.27;3.05;;;11.00;99.90;;;;;;5008528;28;20046;-61
2023/03/31 10:53:13;;;;;;;17.13;3.50;;;11.10;99.90;;;;;;5008110;28;20046;-61
2023/03/31 10:56:01;;;;;;;19.67;3.22;;;11.20;99.90;;;;;;5008602;28;20075;-61
2023/03/31 10:58:33;;;;;;;14.45;2.55;;;11.30;99.90;;;;;;4990621;28;20133;-61
2023/03/31 11:01:16;;;;;;;16.20;3.15;;;11.40;99.90;;;;;;5008070;28;20053;-60
2023/03/31 11:03:52;;;;;;;33.88;5.30;;;11.40;99.90;;;;;;4983820;28;20085;-62
2023/03/31 11:06:26;;;;;;;37.53;4.72;;;11.50;99.90;;;;;;4658062;28;10000589;-62
2023/03/31 11:08:56;;;;;;;;;;;11.50;99.90;;;;;;4965190;28;20050;-62
2023/03/31 11:11:50;;;;;;;8.38;1.70;;;11.50;99.90;;;;;;4999177;28;19925;-60
2023/03/31 11:14:39;;;;;;;7.93;2.33;;;11.60;99.90;;;;;;5004219;28;20054;-60
2023/03/31 11:17:26;;;;;;;1.80;0.70;;;11.70;99.90;;;;;;4960801;28;20501;-62
2023/03/31 11:20:09;;;;;;;8.68;1.08;;;11.70;99.90;;;;;;4988498;28;20058;-62
2023/03/31 11:23:11;;;;;;;6.65;1.98;;;11.80;99.90;;;;;;5005209;28;20104;-61
2023/03/31 11:25:38;;;;;;;4.60;0.90;;;11.80;99.90;;;;;;5005426;28;20157;-62
2023/03/31 11:28:21;;;;;;;5.47;1.42;;;11.90;99.90;;;;;;5004816;28;20136;-61
2023/03/31 11:30:51;;;;;;;4.05;0.80;;;11.90;99.90;;;;;;4970418;28;20129;-62
2023/03/31 11:33:49;;;;;;;10.82;2.35;;;11.90;99.90;;;;;;5002938;28;20141;-62
2023/03/31 11:36:25;;;;;;;2.42;0.70;;;11.90;99.90;;;;;;4984155;28;20054;-61
2023/03/31 11:39:16;;;;;;;1.95;0.75;;;11.90;99.90;;;;;;5004713;28;20501;-61
2023/03/31 11:41:54;;;;;;;3.40;1.05;;;11.90;99.90;;;;;;4995774;28;20505;-62
2023/03/31 11:44:21;;;;;;;1.35;0.57;;;11.80;99.90;;;;;;4986951;28;20132;-62
2023/03/31 11:47:19;;;;;;;2.75;0.80;;;11.80;99.90;;;;;;4986096;28;20053;-61
2023/03/31 11:49:59;;;;;;;2.50;0.55;;;11.80;99.90;;;;;;4996138;28;20233;-61
2023/03/31 11:52:29;;;;;;;7.88;0.80;;;11.80;99.90;;;;;;4972878;28;20081;-62
2023/03/31 11:55:04;;;;;;;1.92;0.70;;;11.90;99.90;;;;;;5003559;28;20054;-62
2023/03/31 11:57:40;;;;;;;3.47;0.98;;;11.90;99.90;;;;;;5003986;28;20046;-60
2023/03/31 12:00:29;;;;;;;1.33;0.50;;;12.00;99.90;;;;;;4987389;28;20060;-61
2023/03/31 12:03:42;;;;;;;4.07;1.00;;;11.90;99.90;;;;;;4987821;28;20056;-61
2023/03/31 12:06:16;;;;;;;4.68;0.65;;;12.00;99.90;;;;;;4927699;29;20051;-61
2023/03/31 12:09:20;;;;;;;2.28;0.52;;;12.00;99.90;;;;;;4953849;28;20061;-62
2023/03/31 12:11:58;;;;;;;2.08;0.90;;;12.10;99.90;;;;;;4998666;28;20052;-61
2023/03/31 12:14:43;;;;;;;3.95;1.10;;;12.00;99.90;;;;;;5008064;28;20505;-61
2023/03/31 12:17:13;;;;;;;3.75;0.77;;;12.20;99.90;;;;;;5003730;28;20137;-61
2023/03/31 12:19:55;;;;;;;4.47;1.30;;;12.20;99.90;;;;;;4991536;28;20638;-61
2023/03/31 12:22:33;;;;;;;1.45;0.63;;;12.30;99.90;;;;;;5003327;28;20054;-61
2023/03/31 12:25:00;;;;;;;1.20;0.70;;;12.40;99.90;;;;;;5006456;28;20576;-60
2023/03/31 12:27:37;;;;;;;1.50;0.70;;;12.40;99.90;;;;;;4990703;28;20098;-60
2023/03/31 12:30:05;;;;;;;1.73;0.70;;;12.40;99.90;;;;;;5007606;28;20050;-60
2023/03/31 12:32:44;;;;;;;1.52;0.60;;;12.50;99.90;;;;;;5006979;28;20052;-61
2023/03/31 12:35:11;;;;;;;1.55;0.68;;;12.50;99.90;;;;;;5002945;28;20531;-61
2023/03/31 12:37:52;;;;;;;2.03;0.70;;;12.60;99.90;;;;;;5007895;28;20050;-61
2023/03/31 12:40:22;;;;;;;4.47;1.08;;;12.50;99.90;;;;;;5003696;28;20072;-59
2023/03/31 12:43:21;;;;;;;3.20;1.00;;;12.60;99.90;;;;;;5008304;28;20050;-60
2023/03/31 12:46:10;;;;;;;5.40;0.90;;;12.70;99.90;;;;;;5002548;28;20046;-60
2023/03/31 12:48:41;;;;;;;3.33;1.17;;;12.60;99.90;;;;;;5005109;28;20106;-60
2023/03/31 12:51:35;;;;;;;3.42;0.85;;;12.70;99.90;;;;;;4995016;28;20049;-60
2023/03/31 12:54:11;;;;;;;;;;;12.80;99.90;;;;;;4999061;28;20156;-60
2023/03/31 12:57:19;;;;;;;5.57;1.08;;;13.00;99.90;;;;;;5007545;28;20012;-61
2023/03/31 12:59:47;;;;;;;5.78;1.20;;;13.10;99.90;;;;;;4965683;28;20090;-60
2023/03/31 13:02:14;;;;;;;2.08;0.85;;;13.30;99.90;;;;;;4933556;28;20043;-60
2023/03/31 13:04:41;;;;;;;2.20;0.77;;;13.40;99.90;;;;;;4989418;28;20140;-61
2023/03/31 13:07:12;;;;;;;5.10;1.08;;;13.60;99.90;;;;;;5008588;28;20525;-61
2023/03/31 13:09:57;;;;;;;2.28;0.95;;;13.80;99.90;;;;;;5001383;28;20133;-61